Time;durP1;ratioP1;P1;durP2;ratioP2;P2;SDS_P1;SDS_P2;PMS_P1;PMS_P2;Temp;Humidity;BMP_temperature;BMP_pressure;BME280_temperature;BME280_humidity;BME280_pressure;Samples;Min_cycle;Max_cycle;Signal;HPM_P1;HPM_P2
2021/10/22 06:02:39;;;;;;;9.32;1.42;;;8.40;99.90;;;;;;6239592;22;20102;-82
2021/10/22 06:05:07;;;;;;;7.57;1.25;;;8.40;99.90;;;;;;6242204;23;20358;-82
2021/10/22 06:07:34;;;;;;;7.15;1.33;;;8.40;99.90;;;;;;6242631;23;20519;-82
2021/10/22 06:10:01;;;;;;;17.25;1.73;;;8.40;99.90;;;;;;6242726;23;20601;-81
2021/10/22 06:12:28;;;;;;;7.78;1.30;;;8.40;99.90;;;;;;6241842;23;20024;-81
2021/10/22 06:14:56;;;;;;;8.38;1.60;;;8.40;99.90;;;;;;6241407;23;20393;-81
2021/10/22 06:17:22;;;;;;;10.63;1.23;;;8.30;99.90;;;;;;6241397;23;20028;-82
2021/10/22 06:19:52;;;;;;;12.07;1.40;;;8.40;99.90;;;;;;6242133;23;20046;-80
2021/10/22 06:22:36;;;;;;;12.05;1.33;;;8.40;99.90;;;;;;6240069;23;20478;-81
2021/10/22 06:25:03;;;;;;;6.47;1.38;;;8.40;99.90;;;;;;6242007;23;20058;-81
2021/10/22 06:27:30;;;;;;;9.32;1.35;;;8.30;99.90;;;;;;6242107;23;20405;-81
2021/10/22 06:29:57;;;;;;;8.82;1.40;;;8.30;99.90;;;;;;6244698;23;20016;-81
2021/10/22 06:32:24;;;;;;;6.20;1.00;;;8.30;99.90;;;;;;6243245;23;20028;-82
2021/10/22 06:34:51;;;;;;;8.02;1.50;;;8.30;99.90;;;;;;6243325;23;20012;-81
2021/10/22 06:37:18;;;;;;;7.95;1.75;;;8.20;99.90;;;;;;6242587;23;20028;-82
2021/10/22 06:39:47;;;;;;;10.10;1.50;;;8.20;99.90;;;;;;6243329;23;20331;-81
2021/10/22 06:42:13;;;;;;;8.30;1.13;;;8.20;99.90;;;;;;6240764;23;20028;-81
2021/10/22 06:44:40;;;;;;;8.52;1.35;;;8.20;99.90;;;;;;6243590;23;20016;-81
2021/10/22 06:47:07;;;;;;;6.95;1.67;;;8.20;99.90;;;;;;6242273;23;20446;-82
2021/10/22 06:49:34;;;;;;;6.88;1.38;;;8.10;99.90;;;;;;6243267;23;20039;-82
2021/10/22 06:52:02;;;;;;;5.93;1.33;;;8.10;99.90;;;;;;6243440;23;20024;-81
2021/10/22 06:54:28;;;;;;;7.70;1.85;;;8.10;99.90;;;;;;6243357;23;20027;-82
2021/10/22 06:56:55;;;;;;;8.88;1.98;;;8.00;99.90;;;;;;6243787;23;20016;-81
2021/10/22 06:59:22;;;;;;;11.80;1.90;;;8.00;99.90;;;;;;6242362;23;20494;-82
2021/10/22 07:01:49;;;;;;;12.88;1.67;;;8.00;99.90;;;;;;6264391;22;20069;-81
2021/10/22 07:04:16;;;;;;;8.50;1.80;;;8.00;99.90;;;;;;6273891;22;20024;-81
2021/10/22 07:09:28;;;;;;;11.25;2.03;;;8.00;99.90;;;;;;6273423;22;20093;-82
2021/10/22 07:11:55;;;;;;;35.47;3.45;;;8.00;99.90;;;;;;6274162;22;20157;-82
2021/10/22 07:14:25;;;;;;;17.38;2.20;;;8.00;99.90;;;;;;6273607;22;20023;-81
2021/10/22 07:16:51;;;;;;;10.00;1.75;;;8.10;99.90;;;;;;6273882;22;20365;-81
2021/10/22 07:19:18;;;;;;;7.15;2.13;;;8.10;99.90;;;;;;6274072;22;20047;-81
2021/10/22 07:21:49;;;;;;;17.15;2.38;;;8.10;99.90;;;;;;6273759;22;20841;-82
2021/10/22 07:24:19;;;;;;;6.88;1.10;;;8.20;99.90;;;;;;6273609;22;20020;-81
2021/10/22 07:26:46;;;;;;;9.05;1.85;;;8.20;99.90;;;;;;6274165;22;20020;-82
2021/10/22 07:29:15;;;;;;;7.97;1.30;;;8.30;99.90;;;;;;6273625;22;20023;-82
2021/10/22 07:31:43;;;;;;;;;;;8.30;99.90;;;;;;6246576;22;20073;-82
2021/10/22 07:34:14;;;;;;;11.10;1.45;;;8.40;99.90;;;;;;6271502;22;20345;-81
2021/10/22 07:36:41;;;;;;;25.77;2.53;;;8.50;99.90;;;;;;6273363;22;20069;-82
2021/10/22 07:39:08;;;;;;;20.77;2.50;;;8.50;99.90;;;;;;6272400;22;20016;-82
2021/10/22 07:41:55;;;;;;;4.28;1.27;;;8.60;99.90;;;;;;6273124;22;20058;-81
2021/10/22 07:44:30;;;;;;;9.73;1.33;;;8.70;99.90;;;;;;6273060;22;20098;-82
2021/10/22 07:46:57;;;;;;;8.60;2.40;;;8.80;99.90;;;;;;6272819;22;20073;-82
2021/10/22 07:49:24;;;;;;;10.30;2.00;;;8.90;99.90;;;;;;6272391;22;20015;-82
2021/10/22 07:51:51;;;;;;;9.52;1.50;;;8.90;99.90;;;;;;6272922;22;20466;-82
2021/10/22 07:54:18;;;;;;;12.75;1.48;;;9.00;99.90;;;;;;6272004;22;20020;-82
2021/10/22 07:56:45;;;;;;;9.52;1.30;;;9.10;99.90;;;;;;6272973;22;20016;-82
2021/10/22 07:59:12;;;;;;;6.95;1.33;;;9.20;99.90;;;;;;6272733;22;20554;-81
2021/10/22 08:01:59;;;;;;;11.85;1.63;;;9.30;99.90;;;;;;6273237;22;20469;-81
2021/10/22 08:04:26;;;;;;;8.50;1.10;;;9.40;99.90;;;;;;6272323;22;20019;-82
2021/10/22 08:06:54;;;;;;;11.40;1.50;;;9.50;99.90;;;;;;6272853;22;20354;-82
2021/10/22 08:09:21;;;;;;;18.95;1.70;;;9.60;99.90;;;;;;6272399;22;20019;-82
2021/10/22 08:11:48;;;;;;;16.00;2.25;;;9.70;99.90;;;;;;6273165;22;20073;-82
2021/10/22 08:14:15;;;;;;;13.25;1.50;;;9.80;99.90;;;;;;6271762;22;20020;-81
2021/10/22 08:16:42;;;;;;;15.88;2.25;;;9.90;99.90;;;;;;6272464;22;20019;-82
2021/10/22 08:19:08;;;;;;;8.88;1.50;;;10.00;99.90;;;;;;6271615;22;20020;-82
2021/10/22 08:24:10;;;;;;;9.15;1.30;;;10.10;99.90;;;;;;6272264;22;20416;-82
2021/10/22 08:26:38;;;;;;;13.68;1.88;;;10.20;99.90;;;;;;6272900;22;20020;-81
2021/10/22 08:29:20;;;;;;;7.00;1.17;;;10.30;99.90;;;;;;6271842;22;20023;-82
2021/10/22 08:31:48;;;;;;;10.40;1.77;;;10.40;99.90;;;;;;6273104;22;20024;-82
2021/10/22 08:34:14;;;;;;;6.22;1.10;;;10.50;99.90;;;;;;6271602;22;20019;-82
2021/10/22 08:36:41;;;;;;;10.98;1.42;;;10.60;99.90;;;;;;6273351;22;20082;-82
2021/10/22 08:39:09;;;;;;;8.77;1.10;;;10.60;99.90;;;;;;6271351;22;20073;-82
2021/10/22 08:41:37;;;;;;;15.10;1.80;;;10.70;99.90;;;;;;6272689;22;20012;-82
2021/10/22 08:44:05;;;;;;;15.77;1.63;;;10.70;99.90;;;;;;6272314;22;20069;-82
2021/10/22 08:46:33;;;;;;;5.50;1.08;;;10.80;99.90;;;;;;6272279;22;20024;-82
2021/10/22 08:49:02;;;;;;;7.13;1.35;;;10.90;99.90;;;;;;6272122;22;20020;-82
2021/10/22 08:51:29;;;;;;;5.72;1.10;;;11.00;99.90;;;;;;6271511;22;20400;-82
2021/10/22 08:53:57;;;;;;;5.72;0.90;;;11.10;99.90;;;;;;6272197;22;20545;-82
2021/10/22 08:56:28;;;;;;;8.25;1.50;;;11.10;99.90;;;;;;6272083;22;20404;-82
2021/10/22 08:58:55;;;;;;;6.20;1.08;;;11.20;99.90;;;;;;6272233;22;20042;-82
2021/10/22 09:01:22;;;;;;;5.28;1.10;;;11.20;99.90;;;;;;6270912;22;20027;-82
2021/10/22 09:03:49;;;;;;;7.18;1.20;;;11.30;99.90;;;;;;6272408;22;20023;-82
2021/10/22 09:06:17;;;;;;;7.45;1.70;;;11.40;99.90;;;;;;6271729;22;20019;-82
2021/10/22 09:08:46;;;;;;;7.07;1.15;;;11.50;99.90;;;;;;6271998;22;20474;-82
2021/10/22 09:11:32;;;;;;;10.73;1.40;;;11.60;99.90;;;;;;6271676;22;20034;-83
2021/10/22 09:14:04;;;;;;;7.30;1.30;;;11.60;99.90;;;;;;6272129;22;20489;-82
2021/10/22 09:16:31;;;;;;;7.32;1.30;;;11.70;99.90;;;;;;6271553;22;20469;-82
2021/10/22 09:18:59;;;;;;;6.25;1.45;;;11.70;99.90;;;;;;6245566;22;20489;-82
2021/10/22 09:21:32;;;;;;;12.68;1.35;;;11.70;99.90;;;;;;6270436;22;20023;-82
2021/10/22 09:24:21;;;;;;;8.25;1.05;;;11.70;99.90;;;;;;6272250;22;20097;-82
2021/10/22 09:26:52;;;;;;;;;;;11.80;99.90;;;;;;6272329;22;20462;-82
2021/10/22 09:29:22;;;;;;;11.68;1.25;;;11.80;99.90;;;;;;6271607;22;19980;-82
2021/10/22 09:31:50;;;;;;;7.53;1.13;;;11.90;99.90;;;;;;6272403;22;20085;-81
2021/10/22 09:34:37;;;;;;;4.72;1.10;;;12.00;99.90;;;;;;6271406;22;20030;-83
2021/10/22 09:37:10;;;;;;;6.00;1.05;;;12.00;99.90;;;;;;6271934;22;20019;-81
2021/10/22 09:39:38;;;;;;;5.63;0.93;;;12.10;99.90;;;;;;6271625;22;20354;-83
2021/10/22 09:42:16;;;;;;;6.00;1.33;;;12.20;99.90;;;;;;6244866;22;20016;-80
2021/10/22 09:44:45;;;;;;;9.05;1.02;;;12.30;99.90;;;;;;6271796;22;20280;-82
2021/10/22 09:47:18;;;;;;;9.43;1.50;;;12.30;99.90;;;;;;6271144;22;20035;-82
2021/10/22 09:49:53;;;;;;;6.60;1.10;;;12.30;99.90;;;;;;6272062;22;20038;-84
2021/10/22 09:52:24;;;;;;;10.00;1.65;;;12.30;99.90;;;;;;6271200;22;20016;-81
2021/10/22 09:55:17;;;;;;;6.88;1.10;;;12.30;99.90;;;;;;6245586;22;20070;-83
2021/10/22 09:58:02;;;;;;;5.50;1.00;;;12.40;99.90;;;;;;6271609;22;20354;-81
2021/10/22 10:00:33;;;;;;;6.50;1.00;;;12.40;99.90;;;;;;6271651;22;20353;-81
2021/10/22 10:03:03;;;;;;;5.72;1.17;;;12.40;99.90;;;;;;6247661;22;20065;-81
2021/10/22 10:05:30;;;;;;;3.53;0.70;;;12.50;99.90;;;;;;6273277;22;20015;-82
2021/10/22 10:07:59;;;;;;;5.65;1.00;;;12.50;99.90;;;;;;6273989;22;20019;-81
2021/10/22 10:10:26;;;;;;;7.88;1.10;;;12.60;99.90;;;;;;6273637;22;20085;-81
2021/10/22 10:12:53;;;;;;;4.18;1.05;;;12.60;99.90;;;;;;6247850;22;20070;-82
2021/10/22 10:15:20;;;;;;;7.95;1.20;;;12.60;99.90;;;;;;6273052;22;20043;-82
2021/10/22 10:17:50;;;;;;;5.32;1.08;;;12.70;99.90;;;;;;6274022;22;20016;-82
2021/10/22 10:20:27;;;;;;;4.93;1.00;;;12.70;99.90;;;;;;6273414;22;20027;-81
2021/10/22 10:22:56;;;;;;;5.20;1.00;;;12.70;99.90;;;;;;6273785;22;20019;-82
2021/10/22 10:25:24;;;;;;;4.97;1.00;;;12.70;99.90;;;;;;6272835;22;20016;-81
2021/10/22 10:27:54;;;;;;;6.90;1.10;;;12.80;99.90;;;;;;6274040;22;20397;-80
2021/10/22 10:30:30;;;;;;;10.93;1.40;;;12.80;99.90;;;;;;6273343;22;20024;-82
2021/10/22 10:32:57;;;;;;;3.25;1.10;;;12.80;99.90;;;;;;6273550;22;20085;-81
2021/10/22 10:35:32;;;;;;;5.15;1.17;;;12.80;99.90;;;;;;6273036;22;20023;-81
2021/10/22 10:37:59;;;;;;;5.50;0.90;;;12.80;99.90;;;;;;6274099;22;20024;-82
2021/10/22 10:40:29;;;;;;;6.82;1.13;;;12.90;99.90;;;;;;6273361;22;20073;-81
2021/10/22 10:42:58;;;;;;;3.15;0.93;;;12.90;99.90;;;;;;6273497;22;20346;-81
2021/10/22 10:45:24;;;;;;;3.95;0.88;;;12.90;99.90;;;;;;6273307;22;20073;-82
2021/10/22 10:47:53;;;;;;;4.63;1.23;;;12.90;99.90;;;;;;6273875;22;20070;-80
2021/10/22 10:50:46;;;;;;;4.72;1.30;;;13.00;99.90;;;;;;6270915;22;20027;-81
2021/10/22 10:53:29;;;;;;;5.97;1.55;;;13.00;99.90;;;;;;6267930;22;20101;-82
2021/10/22 10:55:57;;;;;;;3.60;0.80;;;13.00;99.90;;;;;;6268139;22;20361;-81
2021/10/22 10:58:24;;;;;;;4.20;0.70;;;13.10;99.90;;;;;;6267330;22;20408;-81
2021/10/22 11:01:07;;;;;;;4.00;1.00;;;13.10;99.90;;;;;;6267659;22;20401;-83
2021/10/22 11:03:45;;;;;;;4.70;0.82;;;13.10;99.90;;;;;;6268621;22;20081;-81
2021/10/22 11:06:49;;;;;;;3.73;0.77;;;13.10;99.90;;;;;;6268294;22;20069;-81
2021/10/22 11:09:46;;;;;;;7.18;1.30;;;13.10;99.90;;;;;;6240802;22;20401;-82
2021/10/22 11:12:13;;;;;;;4.22;0.90;;;13.10;99.90;;;;;;6243553;22;20073;-81
2021/10/22 11:14:41;;;;;;;3.95;0.80;;;13.10;99.90;;;;;;6268037;22;20038;-80
2021/10/22 11:17:10;;;;;;;4.75;1.20;;;13.10;99.90;;;;;;6267778;22;20077;-81
2021/10/22 11:19:39;;;;;;;4.15;1.10;;;13.10;99.90;;;;;;6247181;22;20070;-85
2021/10/22 11:22:10;;;;;;;5.72;1.02;;;13.20;99.90;;;;;;6272725;22;20095;-82
2021/10/22 11:24:39;;;;;;;5.65;1.20;;;13.20;99.90;;;;;;6273019;22;20412;-82
2021/10/22 11:27:08;;;;;;;7.07;1.00;;;13.20;99.90;;;;;;6273015;22;20020;-82
2021/10/22 11:29:44;;;;;;;6.82;1.30;;;13.20;99.90;;;;;;6246942;22;20012;-82
2021/10/22 11:32:16;;;;;;;6.05;1.30;;;13.20;99.90;;;;;;6272794;22;20077;-83
2021/10/22 11:34:48;;;;;;;8.25;1.90;;;13.20;99.90;;;;;;6273882;22;20016;-82
2021/10/22 11:37:17;;;;;;;6.13;1.48;;;13.20;99.90;;;;;;6273053;22;20023;-82
2021/10/22 11:39:45;;;;;;;4.93;1.35;;;13.20;99.90;;;;;;6273650;22;20410;-82
2021/10/22 11:42:17;;;;;;;7.65;1.63;;;13.20;99.90;;;;;;6273022;22;20049;-83
2021/10/22 11:44:45;;;;;;;7.38;1.33;;;13.20;99.90;;;;;;6274233;22;20457;-82
2021/10/22 11:47:12;;;;;;;7.55;1.25;;;13.20;99.90;;;;;;6273160;22;20028;-83
2021/10/22 11:49:41;;;;;;;4.80;1.10;;;13.20;99.90;;;;;;6273735;22;20016;-82
2021/10/22 11:52:11;;;;;;;6.25;1.20;;;13.20;99.90;;;;;;6273203;22;20024;-82
2021/10/22 11:54:49;;;;;;;6.22;0.90;;;13.30;99.90;;;;;;6273593;22;20069;-82
2021/10/22 11:57:19;;;;;;;6.75;1.10;;;13.30;99.90;;;;;;6272354;22;20077;-82
2021/10/22 11:59:50;;;;;;;4.13;0.93;;;13.30;99.90;;;;;;6273875;22;20477;-82
2021/10/22 12:02:33;;;;;;;5.03;1.08;;;13.40;99.90;;;;;;6272652;22;20027;-83
2021/10/22 12:05:05;;;;;;;8.30;1.30;;;13.50;99.90;;;;;;6273583;22;20804;-83
2021/10/22 12:07:54;;;;;;;5.18;0.90;;;13.50;99.90;;;;;;6273110;22;20065;-83
2021/10/22 12:10:23;;;;;;;4.88;1.02;;;13.50;99.90;;;;;;6272731;22;20493;-83
2021/10/22 12:12:53;;;;;;;5.28;1.02;;;13.50;99.90;;;;;;6273358;22;20020;-83
2021/10/22 12:15:28;;;;;;;7.47;0.90;;;13.50;99.90;;;;;;6273305;22;20070;-83
2021/10/22 12:17:58;;;;;;;5.68;1.02;;;13.40;99.90;;;;;;6273419;22;20020;-83
2021/10/22 12:20:25;;;;;;;7.57;0.88;;;13.50;99.90;;;;;;6272917;22;20023;-83
2021/10/22 12:22:58;;;;;;;5.30;1.10;;;13.50;99.90;;;;;;6273850;22;20073;-83
2021/10/22 12:25:28;;;;;;;4.25;0.70;;;13.50;99.90;;;;;;6271589;22;20077;-83
2021/10/22 12:28:00;;;;;;;6.93;0.90;;;13.50;99.90;;;;;;6273076;22;20065;-83
2021/10/22 12:30:31;;;;;;;3.63;0.77;;;13.50;99.90;;;;;;6273259;22;20082;-84
2021/10/22 12:33:04;;;;;;;8.63;1.30;;;13.50;99.90;;;;;;6273604;22;20474;-83
2021/10/22 12:36:02;;;;;;;4.72;0.75;;;13.50;99.90;;;;;;6272443;22;20470;-81
2021/10/22 12:38:32;;;;;;;5.82;0.90;;;13.40;99.90;;;;;;6271833;22;20012;-83
2021/10/22 12:41:03;;;;;;;4.13;0.80;;;13.40;99.90;;;;;;6273059;22;20024;-82
2021/10/22 12:43:31;;;;;;;4.32;0.90;;;13.40;99.90;;;;;;6272433;22;20050;-81
2021/10/22 12:46:21;;;;;;;3.40;0.70;;;13.40;99.90;;;;;;6246167;22;20020;-82
2021/10/22 12:48:53;;;;;;;7.40;0.80;;;13.40;99.90;;;;;;6272288;22;20015;-83
2021/10/22 12:51:25;;;;;;;5.20;0.82;;;13.50;99.90;;;;;;6272132;22;20020;-84
2021/10/22 12:53:59;;;;;;;4.47;0.70;;;13.50;99.90;;;;;;6272745;22;20016;-84
2021/10/22 12:56:28;;;;;;;7.13;1.13;;;13.50;99.90;;;;;;6272385;22;20016;-84
2021/10/22 12:58:55;;;;;;;;;;;13.50;99.90;;;;;;6272682;22;20012;-84
2021/10/22 13:01:30;;;;;;;3.33;0.85;;;13.60;99.90;;;;;;6244682;22;19915;-84
2021/10/22 13:04:12;;;;;;;5.40;0.90;;;13.60;99.90;;;;;;6272568;22;20020;-83
2021/10/22 13:15:26;;;;;;;5.88;1.00;;;13.60;99.90;;;;;;6272689;22;20114;-84
2021/10/22 13:20:40;;;;;;;3.15;0.70;;;13.60;99.90;;;;;;6272447;22;20411;-84
2021/10/22 13:23:17;;;;;;;5.50;1.02;;;13.60;99.90;;;;;;6272033;22;20020;-84
2021/10/22 13:25:47;;;;;;;5.43;1.48;;;13.60;99.90;;;;;;6272971;22;20019;-82
2021/10/22 13:28:19;;;;;;;4.35;0.98;;;13.60;99.90;;;;;;6271867;22;20028;-82
2021/10/22 13:30:52;;;;;;;4.90;1.13;;;13.60;99.90;;;;;;6272775;22;20031;-83
2021/10/22 13:33:27;;;;;;;4.97;0.88;;;13.60;99.90;;;;;;6270577;22;20012;-83
2021/10/22 13:35:56;;;;;;;7.00;1.00;;;13.60;99.90;;;;;;6272766;22;20130;-83
2021/10/22 13:38:22;;;;;;;;;;;13.60;99.90;;;;;;6272183;22;20534;-83
2021/10/22 13:40:50;;;;;;;5.18;0.98;;;13.60;99.90;;;;;;6272654;22;19919;-84
2021/10/22 13:43:17;;;;;;;5.28;1.08;;;13.60;99.90;;;;;;6271705;22;20027;-83
2021/10/22 13:45:45;;;;;;;3.20;0.80;;;13.70;99.90;;;;;;6273157;22;20069;-83
2021/10/22 13:48:12;;;;;;;3.33;0.88;;;13.70;99.90;;;;;;6271944;22;20361;-83
2021/10/22 13:50:39;;;;;;;6.18;0.75;;;13.70;99.90;;;;;;6272557;22;20011;-84
2021/10/22 13:53:07;;;;;;;6.20;0.90;;;13.70;99.90;;;;;;6271578;22;20015;-83
2021/10/22 13:55:34;;;;;;;4.28;1.20;;;13.60;99.90;;;;;;6272553;22;20020;-82
2021/10/22 13:58:01;;;;;;;4.38;0.60;;;13.70;99.90;;;;;;6273042;22;20627;-83
2021/10/22 14:00:29;;;;;;;4.95;0.70;;;13.70;99.90;;;;;;6271453;22;20085;-83
2021/10/22 14:02:56;;;;;;;5.95;1.02;;;13.70;99.90;;;;;;6270984;22;20024;-83
2021/10/22 14:05:24;;;;;;;3.45;0.98;;;13.70;99.90;;;;;;6271438;22;20024;-82
2021/10/22 14:07:51;;;;;;;3.53;0.70;;;13.70;99.90;;;;;;6272050;22;20028;-82
2021/10/22 14:10:23;;;;;;;6.93;1.10;;;13.80;99.90;;;;;;6244901;22;20032;-84
2021/10/22 14:13:06;;;;;;;4.60;0.77;;;13.70;99.90;;;;;;6272625;22;20019;-83
2021/10/22 14:29:09;;;;;;;5.30;1.00;;;13.70;99.90;;;;;;6272684;22;19969;-84
2021/10/22 14:31:39;;;;;;;4.90;1.10;;;13.70;99.90;;;;;;6245130;22;20007;-82
2021/10/22 14:34:08;;;;;;;3.75;0.80;;;13.70;99.90;;;;;;6245126;22;20022;-83
2021/10/22 14:36:42;;;;;;;6.80;1.08;;;13.60;99.90;;;;;;6271905;22;20019;-84
2021/10/22 14:39:09;;;;;;;4.60;1.27;;;13.60;99.90;;;;;;6271361;22;20161;-83
2021/10/22 14:41:37;;;;;;;2.97;0.70;;;13.60;99.90;;;;;;6271783;22;20339;-83
2021/10/22 14:44:06;;;;;;;;;;;13.60;99.90;;;;;;6272555;22;20016;-82
2021/10/22 14:46:47;;;;;;;2.75;0.73;;;13.60;99.90;;;;;;6272916;22;20413;-82
2021/10/22 14:49:20;;;;;;;3.55;0.82;;;13.60;99.90;;;;;;6272418;22;20474;-83
2021/10/22 14:54:26;;;;;;;3.55;0.63;;;13.60;99.90;;;;;;6273480;22;20349;-82
2021/10/22 14:56:53;;;;;;;4.00;0.77;;;13.60;99.90;;;;;;6247056;22;20016;-82
2021/10/22 14:59:20;;;;;;;4.15;0.50;;;13.50;99.90;;;;;;6273189;22;20361;-83
2021/10/22 15:01:49;;;;;;;3.70;0.80;;;13.50;99.90;;;;;;6273887;22;20012;-84
2021/10/22 15:04:17;;;;;;;3.05;0.80;;;13.50;99.90;;;;;;6272840;22;20098;-83
2021/10/22 15:06:47;;;;;;;3.88;0.60;;;13.50;99.90;;;;;;6273997;22;20023;-83
2021/10/22 15:09:14;;;;;;;7.40;1.15;;;13.50;99.90;;;;;;6246631;22;20024;-82
2021/10/22 15:11:41;;;;;;;3.10;0.65;;;13.50;99.90;;;;;;6273759;22;20397;-82
2021/10/22 15:14:08;;;;;;;4.90;0.70;;;13.50;99.90;;;;;;6273102;22;20454;-86
2021/10/22 15:16:35;;;;;;;4.88;0.80;;;13.50;99.90;;;;;;6273282;22;20023;-82
2021/10/22 15:19:03;;;;;;;4.15;0.68;;;13.40;99.90;;;;;;6246737;22;20385;-83
2021/10/22 15:21:30;;;;;;;3.63;0.90;;;13.40;99.90;;;;;;6246819;22;20085;-84
2021/10/22 15:23:57;;;;;;;3.88;0.70;;;13.40;99.90;;;;;;6273144;22;20542;-83
2021/10/22 15:26:25;;;;;;;4.50;0.60;;;13.40;99.90;;;;;;6272007;22;20330;-83
2021/10/22 15:28:53;;;;;;;3.63;1.17;;;13.30;99.90;;;;;;6247038;22;20086;-82
2021/10/22 15:31:20;;;;;;;4.20;1.00;;;13.30;99.90;;;;;;6246412;22;20393;-82
2021/10/22 15:33:46;;;;;;;3.88;0.93;;;13.20;99.90;;;;;;6273679;22;20016;-83
2021/10/22 15:36:31;;;;;;;5.65;0.80;;;13.20;99.90;;;;;;6253676;22;20101;-84
2021/10/22 15:38:59;;;;;;;5.75;0.77;;;13.20;99.90;;;;;;6170033;22;20115;-83
2021/10/22 15:41:33;;;;;;;3.13;0.60;;;13.20;99.90;;;;;;6271894;22;20016;-82
2021/10/22 15:44:00;;;;;;;5.07;0.80;;;13.20;99.90;;;;;;6273747;22;20023;-83
2021/10/22 15:46:26;;;;;;;3.95;0.80;;;13.30;99.90;;;;;;6273509;22;20020;-84
2021/10/22 15:48:53;;;;;;;2.28;0.57;;;13.30;99.90;;;;;;6273639;22;20023;-84
2021/10/22 15:51:20;;;;;;;4.28;0.82;;;13.30;99.90;;;;;;6272209;22;20082;-83
2021/10/22 15:53:47;;;;;;;6.70;1.20;;;13.30;99.90;;;;;;6274070;22;20061;-84
2021/10/22 15:56:14;;;;;;;5.70;0.88;;;13.30;99.90;;;;;;6245121;22;20027;-88
2021/10/22 15:58:41;;;;;;;4.38;0.98;;;13.30;99.90;;;;;;6273699;22;20027;-84
2021/10/22 16:01:08;;;;;;;2.72;0.70;;;13.30;99.90;;;;;;6272068;22;20015;-83
2021/10/22 16:03:35;;;;;;;4.82;0.82;;;13.20;99.90;;;;;;6272300;22;20458;-83
2021/10/22 16:06:11;;;;;;;4.47;1.13;;;13.20;99.90;;;;;;6273329;22;20020;-82
2021/10/22 16:11:19;;;;;;;3.88;0.98;;;13.10;99.90;;;;;;6272243;22;20020;-84
2021/10/22 16:14:01;;;;;;;5.78;1.08;;;13.10;99.90;;;;;;6245859;22;20473;-82
2021/10/22 16:18:57;;;;;;;5.15;0.60;;;13.10;99.90;;;;;;6272957;22;20477;-83
2021/10/22 16:21:24;;;;;;;4.72;1.30;;;13.00;99.90;;;;;;6271614;22;20032;-84
2021/10/22 16:23:52;;;;;;;5.95;1.10;;;12.90;99.90;;;;;;6272362;22;20015;-83
2021/10/22 16:26:19;;;;;;;4.85;0.70;;;12.90;99.90;;;;;;6245055;22;20023;-85
2021/10/22 16:28:46;;;;;;;5.35;1.00;;;12.90;99.90;;;;;;6246963;22;20413;-86
2021/10/22 16:31:15;;;;;;;4.30;1.00;;;12.80;99.90;;;;;;6273366;22;20065;-86
2021/10/22 16:36:11;;;;;;;8.07;1.10;;;12.80;99.90;;;;;;6273015;22;20532;-85
2021/10/22 16:38:39;;;;;;;7.97;1.08;;;12.70;99.90;;;;;;6241811;22;20466;-87
2021/10/22 16:41:06;;;;;;;9.57;0.85;;;12.70;99.90;;;;;;6273098;22;20081;-85
2021/10/22 16:43:34;;;;;;;5.28;0.90;;;12.70;99.90;;;;;;6245215;22;20069;-84
2021/10/22 16:46:08;;;;;;;6.82;0.90;;;12.60;99.90;;;;;;6246107;22;20016;-84
2021/10/22 16:48:36;;;;;;;10.07;0.85;;;12.60;99.90;;;;;;6271218;22;20034;-84
2021/10/22 16:51:03;;;;;;;6.28;1.25;;;12.50;99.90;;;;;;6271315;22;20482;-82
2021/10/22 16:53:31;;;;;;;4.75;0.85;;;12.50;99.90;;;;;;6245226;22;20011;-83
2021/10/22 16:55:58;;;;;;;4.57;0.90;;;12.40;99.90;;;;;;6271808;22;20020;-84
2021/10/22 16:58:26;;;;;;;4.30;0.80;;;12.30;99.90;;;;;;6270919;22;20024;-84
2021/10/22 17:00:53;;;;;;;3.60;0.82;;;12.30;99.90;;;;;;6244617;22;20070;-83
2021/10/22 17:03:20;;;;;;;5.97;1.00;;;12.20;99.90;;;;;;6271176;22;20530;-83
2021/10/22 17:05:47;;;;;;;3.25;1.00;;;12.20;99.90;;;;;;6271270;22;20024;-83
2021/10/22 17:08:14;;;;;;;5.78;1.17;;;12.10;99.90;;;;;;6270093;22;20020;-84
2021/10/22 17:10:42;;;;;;;3.92;0.93;;;12.10;99.90;;;;;;6271089;22;20015;-83
2021/10/22 17:13:10;;;;;;;4.28;0.85;;;12.00;99.90;;;;;;6243712;22;20093;-84
2021/10/22 17:15:37;;;;;;;5.65;0.82;;;11.90;99.90;;;;;;6249504;22;20466;-85
2021/10/22 17:18:04;;;;;;;3.00;0.80;;;11.80;99.90;;;;;;6272450;22;20016;-84
2021/10/22 17:20:30;;;;;;;4.75;0.93;;;11.80;99.90;;;;;;6271111;22;20023;-82
2021/10/22 17:23:00;;;;;;;3.38;0.90;;;11.70;99.90;;;;;;6271071;22;20405;-81
2021/10/22 17:25:27;;;;;;;3.95;0.85;;;11.60;99.90;;;;;;6269076;22;20020;-81
2021/10/22 17:27:55;;;;;;;5.43;1.33;;;11.50;99.90;;;;;;6272247;22;20073;-82
2021/10/22 17:30:27;;;;;;;3.28;0.90;;;11.40;99.90;;;;;;6271555;22;20028;-82
2021/10/22 17:32:54;;;;;;;3.30;0.60;;;11.30;99.90;;;;;;6272292;22;20081;-81
2021/10/22 17:35:24;;;;;;;5.80;1.00;;;11.30;99.90;;;;;;6271273;22;20028;-81
2021/10/22 17:37:53;;;;;;;5.35;1.13;;;11.20;99.90;;;;;;6272034;22;20019;-81
2021/10/22 17:40:20;;;;;;;4.05;1.08;;;11.10;99.90;;;;;;6268959;22;20069;-81
2021/10/22 17:42:47;;;;;;;4.53;1.20;;;11.00;99.90;;;;;;6244670;22;20465;-81
2021/10/22 17:45:14;;;;;;;6.35;1.00;;;10.90;99.90;;;;;;6270885;22;20031;-82
2021/10/22 17:47:42;;;;;;;5.38;1.42;;;10.90;99.90;;;;;;6271526;22;20409;-81
2021/10/22 17:50:09;;;;;;;4.88;1.27;;;10.80;99.90;;;;;;6243716;22;20032;-81
2021/10/22 17:52:38;;;;;;;5.50;1.40;;;10.80;99.90;;;;;;6272115;22;20081;-81
2021/10/22 17:55:10;;;;;;;5.55;1.45;;;10.70;99.90;;;;;;6245131;22;20023;-81
2021/10/22 17:57:37;;;;;;;8.80;1.48;;;10.60;99.90;;;;;;6270146;22;20019;-81
2021/10/22 18:00:05;;;;;;;4.90;1.45;;;10.50;99.90;;;;;;6243487;22;20073;-82
2021/10/22 18:02:36;;;;;;;4.50;1.67;;;10.40;99.90;;;;;;6230091;22;20019;-80
2021/10/22 18:05:03;;;;;;;5.68;1.33;;;10.30;99.90;;;;;;6270886;22;20047;-80
2021/10/22 18:07:31;;;;;;;3.00;1.25;;;10.30;99.90;;;;;;6271127;22;20008;-81
2021/10/22 18:09:58;;;;;;;7.10;1.77;;;10.20;99.90;;;;;;6270709;22;20091;-80
2021/10/22 18:12:25;;;;;;;6.25;1.52;;;10.10;99.90;;;;;;6269925;22;20077;-80
2021/10/22 18:14:52;;;;;;;5.75;1.70;;;10.10;99.90;;;;;;6271241;22;20019;-80
2021/10/22 18:17:19;;;;;;;4.75;1.40;;;10.00;99.90;;;;;;6269938;22;20020;-81
2021/10/22 18:19:46;;;;;;;4.72;1.88;;;10.00;99.90;;;;;;6271083;22;20031;-80
2021/10/22 18:22:13;;;;;;;6.05;1.40;;;9.90;99.90;;;;;;6270204;22;20024;-81
2021/10/22 18:24:40;;;;;;;6.32;1.75;;;9.90;99.90;;;;;;6272528;22;20073;-81
2021/10/22 18:27:08;;;;;;;6.80;1.52;;;9.80;99.90;;;;;;6269385;22;20016;-81
2021/10/22 18:29:41;;;;;;;5.10;1.40;;;9.90;99.90;;;;;;6244780;22;20047;-81
2021/10/22 18:32:09;;;;;;;4.65;1.73;;;9.80;99.90;;;;;;6248430;22;20653;-80
2021/10/22 18:34:36;;;;;;;6.03;1.40;;;9.80;99.90;;;;;;6262635;22;20027;-79
2021/10/22 18:37:06;;;;;;;9.57;1.77;;;9.70;99.90;;;;;;6266081;22;20032;-81
2021/10/22 18:39:34;;;;;;;6.95;1.50;;;9.70;99.90;;;;;;6262477;22;20102;-80
2021/10/22 18:42:01;;;;;;;6.90;1.52;;;9.70;99.90;;;;;;6265740;22;20031;-81
2021/10/22 18:44:31;;;;;;;5.80;1.77;;;9.60;99.90;;;;;;6265494;22;20023;-82
2021/10/22 18:47:00;;;;;;;7.18;1.98;;;9.60;99.90;;;;;;6265620;22;20019;-81
2021/10/22 18:49:45;;;;;;;8.57;1.73;;;9.60;99.90;;;;;;6238484;22;20016;-82
2021/10/22 18:52:16;;;;;;;6.18;1.58;;;9.50;99.90;;;;;;6265535;22;20051;-81
2021/10/22 18:54:51;;;;;;;8.70;3.03;;;9.50;99.90;;;;;;6266316;22;20360;-81
2021/10/22 18:57:23;;;;;;;9.48;2.08;;;9.50;99.90;;;;;;6263658;22;20016;-82
2021/10/22 18:59:54;;;;;;;6.32;1.50;;;9.40;99.90;;;;;;6239863;22;20023;-83
2021/10/22 19:02:23;;;;;;;10.45;1.92;;;9.40;99.90;;;;;;6232360;22;20024;-83
2021/10/22 19:04:53;;;;;;;6.20;1.77;;;9.40;99.90;;;;;;6234486;22;20489;-81
2021/10/22 19:07:22;;;;;;;12.35;2.35;;;9.40;99.90;;;;;;6233558;22;20020;-82
2021/10/22 19:09:52;;;;;;;9.02;2.38;;;9.30;99.90;;;;;;6234054;22;20357;-81
2021/10/22 19:12:22;;;;;;;10.82;2.38;;;9.30;99.90;;;;;;6233892;22;20028;-82
2021/10/22 19:14:54;;;;;;;7.70;1.88;;;9.30;99.90;;;;;;6232393;23;20604;-80
2021/10/22 19:17:24;;;;;;;6.25;1.33;;;9.30;99.90;;;;;;6233158;22;20023;-81
2021/10/22 19:19:52;;;;;;;5.72;2.05;;;9.30;99.90;;;;;;6233983;23;20012;-80
2021/10/22 19:22:20;;;;;;;4.77;1.50;;;9.20;99.90;;;;;;6235512;22;20047;-83
2021/10/22 19:24:48;;;;;;;11.65;1.98;;;9.20;99.90;;;;;;6234371;23;20259;-82
2021/10/22 19:27:15;;;;;;;8.32;1.88;;;9.20;99.90;;;;;;6234894;22;20070;-82
2021/10/22 19:29:43;;;;;;;10.45;2.65;;;9.20;99.90;;;;;;6236332;22;20028;-83
2021/10/22 19:32:10;;;;;;;7.80;2.22;;;9.10;99.90;;;;;;6233990;22;20028;-83
2021/10/22 19:34:37;;;;;;;8.10;2.35;;;9.20;99.90;;;;;;6234405;23;20074;-82
2021/10/22 19:37:04;;;;;;;12.50;2.10;;;9.10;99.90;;;;;;6236181;22;20020;-82
2021/10/22 19:39:32;;;;;;;6.88;2.10;;;9.10;99.90;;;;;;6234967;22;20012;-82
2021/10/22 19:41:59;;;;;;;6.45;1.75;;;9.10;99.90;;;;;;6236318;22;20078;-81
2021/10/22 19:44:28;;;;;;;8.35;2.00;;;9.00;99.90;;;;;;6233850;22;20031;-82
2021/10/22 19:46:55;;;;;;;7.13;2.33;;;9.00;99.90;;;;;;6236832;22;20024;-81